sensor_id;sensor_type;location;lat;lon;timestamp;P1;durP1;ratioP1;P2;durP2;ratioP2
1785;SDS011;890;48.158;11.540;2024-02-23T00:00:50;450.97;;;419.50;;
1785;SDS011;890;48.158;11.540;2024-02-23T00:03:16;453.17;;;416.60;;
1785;SDS011;890;48.158;11.540;2024-02-23T00:05:41;427.27;;;397.37;;
1785;SDS011;890;48.158;11.540;2024-02-23T00:08:07;406.70;;;378.47;;
1785;SDS011;890;48.158;11.540;2024-02-23T00:10:34;425.27;;;395.57;;
1785;SDS011;890;48.158;11.540;2024-02-23T00:13:00;405.57;;;377.47;;
1785;SDS011;890;48.158;11.540;2024-02-23T00:15:26;309.63;;;289.33;;
1785;SDS011;890;48.158;11.540;2024-02-23T00:17:51;246.77;;;229.87;;
1785;SDS011;890;48.158;11.540;2024-02-23T00:20:17;218.67;;;204.87;;
1785;SDS011;890;48.158;11.540;2024-02-23T00:22:43;240.73;;;225.33;;
1785;SDS011;890;48.158;11.540;2024-02-23T00:25:08;163.47;;;152.63;;
1785;SDS011;890;48.158;11.540;2024-02-23T00:27:34;72.53;;;68.00;;
1785;SDS011;890;48.158;11.540;2024-02-23T00:29:59;48.13;;;45.03;;
1785;SDS011;890;48.158;11.540;2024-02-23T00:32:25;19.57;;;18.30;;
1785;SDS011;890;48.158;11.540;2024-02-23T00:34:51;18.53;;;17.27;;
1785;SDS011;890;48.158;11.540;2024-02-23T00:37:16;88.03;;;83.07;;
1785;SDS011;890;48.158;11.540;2024-02-23T00:39:42;49.57;;;46.90;;
1785;SDS011;890;48.158;11.540;2024-02-23T00:42:08;77.17;;;73.17;;
1785;SDS011;890;48.158;11.540;2024-02-23T00:44:33;75.77;;;71.77;;
1785;SDS011;890;48.158;11.540;2024-02-23T00:46:59;55.70;;;52.73;;
1785;SDS011;890;48.158;11.540;2024-02-23T00:49:27;76.37;;;72.03;;
1785;SDS011;890;48.158;11.540;2024-02-23T00:51:53;283.93;;;264.40;;
1785;SDS011;890;48.158;11.540;2024-02-23T00:54:20;270.97;;;253.17;;
1785;SDS011;890;48.158;11.540;2024-02-23T00:56:45;245.60;;;230.57;;
1785;SDS011;890;48.158;11.540;2024-02-23T00:59:11;215.80;;;201.97;;
1785;SDS011;890;48.158;11.540;2024-02-23T01:01:37;212.40;;;197.73;;
1785;SDS011;890;48.158;11.540;2024-02-23T01:04:03;282.03;;;262.87;;
1785;SDS011;890;48.158;11.540;2024-02-23T01:06:29;585.63;;;535.00;;
1785;SDS011;890;48.158;11.540;2024-02-23T01:08:54;1358.47;;;999.90;;
1785;SDS011;890;48.158;11.540;2024-02-23T01:11:20;1320.77;;;999.90;;
1785;SDS011;890;48.158;11.540;2024-02-23T01:13:45;1356.07;;;999.90;;
1785;SDS011;890;48.158;11.540;2024-02-23T01:16:11;1396.73;;;999.90;;
1785;SDS011;890;48.158;11.540;2024-02-23T01:18:37;1310.83;;;999.90;;
1785;SDS011;890;48.158;11.540;2024-02-23T01:21:02;1374.10;;;999.90;;
1785;SDS011;890;48.158;11.540;2024-02-23T01:23:28;1097.13;;;995.13;;
1785;SDS011;890;48.158;11.540;2024-02-23T01:25:54;1469.73;;;999.90;;
1785;SDS011;890;48.158;11.540;2024-02-23T01:28:19;1409.33;;;999.90;;
1785;SDS011;890;48.158;11.540;2024-02-23T01:30:45;1427.43;;;999.90;;
1785;SDS011;890;48.158;11.540;2024-02-23T01:33:10;1411.87;;;999.90;;
1785;SDS011;890;48.158;11.540;2024-02-23T01:35:36;1384.63;;;999.90;;
1785;SDS011;890;48.158;11.540;2024-02-23T01:38:02;1333.17;;;999.90;;
1785;SDS011;890;48.158;11.540;2024-02-23T01:40:28;1293.93;;;999.90;;
1785;SDS011;890;48.158;11.540;2024-02-23T01:43:00;1356.87;;;999.90;;
1785;SDS011;890;48.158;11.540;2024-02-23T01:45:29;1365.80;;;999.90;;
1785;SDS011;890;48.158;11.540;2024-02-23T01:47:56;1364.33;;;999.90;;
1785;SDS011;890;48.158;11.540;2024-02-23T01:50:22;1410.47;;;999.90;;
1785;SDS011;890;48.158;11.540;2024-02-23T01:52:48;1077.53;;;983.27;;
1785;SDS011;890;48.158;11.540;2024-02-23T01:55:16;1180.30;;;999.90;;
1785;SDS011;890;48.158;11.540;2024-02-23T01:57:42;1088.93;;;992.73;;
1785;SDS011;890;48.158;11.540;2024-02-23T02:00:10;1257.23;;;999.90;;
1785;SDS011;890;48.158;11.540;2024-02-23T02:02:40;1198.03;;;999.90;;
1785;SDS011;890;48.158;11.540;2024-02-23T02:05:05;1042.40;;;949.20;;
1785;SDS011;890;48.158;11.540;2024-02-23T02:07:32;1089.07;;;991.70;;
1785;SDS011;890;48.158;11.540;2024-02-23T02:09:58;1208.60;;;999.90;;
1785;SDS011;890;48.158;11.540;2024-02-23T02:12:27;1143.93;;;999.90;;
1785;SDS011;890;48.158;11.540;2024-02-23T02:14:53;1307.40;;;999.90;;
1785;SDS011;890;48.158;11.540;2024-02-23T02:17:19;1077.73;;;982.67;;
1785;SDS011;890;48.158;11.540;2024-02-23T02:19:48;979.13;;;894.73;;
1785;SDS011;890;48.158;11.540;2024-02-23T02:22:13;970.07;;;885.80;;
1785;SDS011;890;48.158;11.540;2024-02-23T02:24:39;1056.67;;;961.83;;
1785;SDS011;890;48.158;11.540;2024-02-23T02:27:08;1012.90;;;922.73;;
1785;SDS011;890;48.158;11.540;2024-02-23T02:29:37;987.13;;;901.57;;
1785;SDS011;890;48.158;11.540;2024-02-23T02:32:03;917.90;;;839.00;;
1785;SDS011;890;48.158;11.540;2024-02-23T02:34:29;744.70;;;683.37;;
1785;SDS011;890;48.158;11.540;2024-02-23T02:36:55;985.33;;;899.67;;
1785;SDS011;890;48.158;11.540;2024-02-23T02:39:21;990.47;;;903.37;;
1785;SDS011;890;48.158;11.540;2024-02-23T02:41:48;1032.90;;;939.23;;
1785;SDS011;890;48.158;11.540;2024-02-23T02:44:14;1014.00;;;923.43;;
1785;SDS011;890;48.158;11.540;2024-02-23T02:46:40;792.23;;;722.70;;
1785;SDS011;890;48.158;11.540;2024-02-23T02:49:06;942.37;;;862.87;;
1785;SDS011;890;48.158;11.540;2024-02-23T02:51:31;950.27;;;868.60;;
1785;SDS011;890;48.158;11.540;2024-02-23T02:53:57;1027.63;;;934.93;;
1785;SDS011;890;48.158;11.540;2024-02-23T02:56:23;969.57;;;884.57;;
1785;SDS011;890;48.158;11.540;2024-02-23T02:58:48;1014.07;;;924.30;;
1785;SDS011;890;48.158;11.540;2024-02-23T03:01:14;897.47;;;820.90;;
1785;SDS011;890;48.158;11.540;2024-02-23T03:03:40;1031.47;;;940.30;;
1785;SDS011;890;48.158;11.540;2024-02-23T03:06:05;1028.07;;;937.03;;
1785;SDS011;890;48.158;11.540;2024-02-23T03:08:31;935.00;;;854.47;;
1785;SDS011;890;48.158;11.540;2024-02-23T03:10:57;1033.27;;;938.90;;
1785;SDS011;890;48.158;11.540;2024-02-23T03:13:23;1057.50;;;963.03;;
1785;SDS011;890;48.158;11.540;2024-02-23T03:15:49;1107.70;;;999.70;;
1785;SDS011;890;48.158;11.540;2024-02-23T03:18:14;1220.60;;;999.90;;
1785;SDS011;890;48.158;11.540;2024-02-23T03:20:41;1292.67;;;999.90;;
1785;SDS011;890;48.158;11.540;2024-02-23T03:23:07;1114.90;;;999.90;;
1785;SDS011;890;48.158;11.540;2024-02-23T03:25:33;1135.17;;;999.90;;
1785;SDS011;890;48.158;11.540;2024-02-23T03:27:58;1154.77;;;999.90;;
1785;SDS011;890;48.158;11.540;2024-02-23T03:30:24;1110.73;;;999.90;;
1785;SDS011;890;48.158;11.540;2024-02-23T03:32:50;702.13;;;642.93;;
1785;SDS011;890;48.158;11.540;2024-02-23T03:35:15;2.37;;;1.00;;
1785;SDS011;890;48.158;11.540;2024-02-23T03:37:41;4.57;;;1.70;;
1785;SDS011;890;48.158;11.540;2024-02-23T03:40:07;5.13;;;1.50;;
1785;SDS011;890;48.158;11.540;2024-02-23T03:42:35;5.20;;;1.57;;
1785;SDS011;890;48.158;11.540;2024-02-23T03:45:01;3.50;;;1.57;;
1785;SDS011;890;48.158;11.540;2024-02-23T03:47:27;25.37;;;23.60;;
1785;SDS011;890;48.158;11.540;2024-02-23T03:49:53;149.07;;;139.97;;
1785;SDS011;890;48.158;11.540;2024-02-23T03:52:19;341.33;;;314.17;;
1785;SDS011;890;48.158;11.540;2024-02-23T03:54:44;427.97;;;396.47;;
1785;SDS011;890;48.158;11.540;2024-02-23T03:57:10;348.13;;;323.20;;
1785;SDS011;890;48.158;11.540;2024-02-23T03:59:36;356.57;;;330.97;;
1785;SDS011;890;48.158;11.540;2024-02-23T04:02:06;233.10;;;217.03;;
1785;SDS011;890;48.158;11.540;2024-02-23T04:04:31;304.00;;;282.00;;
1785;SDS011;890;48.158;11.540;2024-02-23T04:06:57;820.90;;;748.53;;
1785;SDS011;890;48.158;11.540;2024-02-23T04:09:23;704.67;;;641.87;;
1785;SDS011;890;48.158;11.540;2024-02-23T04:11:49;847.00;;;772.00;;
1785;SDS011;890;48.158;11.540;2024-02-23T04:14:15;934.70;;;852.20;;
1785;SDS011;890;48.158;11.540;2024-02-23T04:16:40;829.87;;;758.03;;
1785;SDS011;890;48.158;11.540;2024-02-23T04:19:06;841.57;;;769.97;;
1785;SDS011;890;48.158;11.540;2024-02-23T04:21:32;808.03;;;738.97;;
1785;SDS011;890;48.158;11.540;2024-02-23T04:23:57;802.80;;;735.17;;
1785;SDS011;890;48.158;11.540;2024-02-23T04:26:23;1045.07;;;952.40;;
1785;SDS011;890;48.158;11.540;2024-02-23T04:28:49;1118.40;;;999.90;;
1785;SDS011;890;48.158;11.540;2024-02-23T04:31:14;1395.40;;;999.90;;
1785;SDS011;890;48.158;11.540;2024-02-23T04:33:40;1442.73;;;999.90;;
1785;SDS011;890;48.158;11.540;2024-02-23T04:36:06;1077.07;;;982.37;;
1785;SDS011;890;48.158;11.540;2024-02-23T04:38:32;619.97;;;570.93;;
1785;SDS011;890;48.158;11.540;2024-02-23T04:41:02;746.90;;;686.47;;
1785;SDS011;890;48.158;11.540;2024-02-23T04:43:28;709.33;;;653.47;;
1785;SDS011;890;48.158;11.540;2024-02-23T04:45:54;723.10;;;666.20;;
1785;SDS011;890;48.158;11.540;2024-02-23T04:48:19;737.37;;;677.50;;
1785;SDS011;890;48.158;11.540;2024-02-23T04:50:45;861.93;;;789.47;;
1785;SDS011;890;48.158;11.540;2024-02-23T04:53:10;1008.13;;;920.83;;
1785;SDS011;890;48.158;11.540;2024-02-23T04:55:37;1008.07;;;921.13;;
1785;SDS011;890;48.158;11.540;2024-02-23T04:58:03;820.10;;;749.27;;
1785;SDS011;890;48.158;11.540;2024-02-23T05:00:28;1025.93;;;936.23;;
1785;SDS011;890;48.158;11.540;2024-02-23T05:02:58;1089.40;;;991.17;;
1785;SDS011;890;48.158;11.540;2024-02-23T05:05:29;1097.10;;;995.73;;
1785;SDS011;890;48.158;11.540;2024-02-23T05:07:55;918.07;;;837.37;;
1785;SDS011;890;48.158;11.540;2024-02-23T05:10:21;874.80;;;799.90;;
1785;SDS011;890;48.158;11.540;2024-02-23T05:12:47;972.77;;;885.87;;
1785;SDS011;890;48.158;11.540;2024-02-23T05:15:13;1018.77;;;925.87;;
1785;SDS011;890;48.158;11.540;2024-02-23T05:17:39;1037.43;;;941.40;;
1785;SDS011;890;48.158;11.540;2024-02-23T05:20:05;1073.53;;;973.77;;
1785;SDS011;890;48.158;11.540;2024-02-23T05:22:34;1040.13;;;945.43;;
1785;SDS011;890;48.158;11.540;2024-02-23T05:25:00;1445.43;;;999.90;;
1785;SDS011;890;48.158;11.540;2024-02-23T05:27:25;1469.63;;;999.90;;
1785;SDS011;890;48.158;11.540;2024-02-23T05:29:52;1470.10;;;999.90;;
1785;SDS011;890;48.158;11.540;2024-02-23T05:32:18;1460.40;;;999.90;;
1785;SDS011;890;48.158;11.540;2024-02-23T05:34:44;1212.33;;;999.90;;
1785;SDS011;890;48.158;11.540;2024-02-23T05:37:10;1249.47;;;999.90;;
1785;SDS011;890;48.158;11.540;2024-02-23T05:39:35;1219.73;;;999.90;;
1785;SDS011;890;48.158;11.540;2024-02-23T05:42:03;1212.67;;;999.90;;
1785;SDS011;890;48.158;11.540;2024-02-23T05:44:29;1402.13;;;999.90;;
1785;SDS011;890;48.158;11.540;2024-02-23T05:46:54;1422.73;;;999.90;;
1785;SDS011;890;48.158;11.540;2024-02-23T05:49:20;1433.33;;;999.90;;
1785;SDS011;890;48.158;11.540;2024-02-23T05:51:46;1478.20;;;999.90;;
1785;SDS011;890;48.158;11.540;2024-02-23T05:54:11;1483.13;;;999.90;;
1785;SDS011;890;48.158;11.540;2024-02-23T05:56:37;1471.97;;;999.90;;
1785;SDS011;890;48.158;11.540;2024-02-23T05:59:02;1387.27;;;999.90;;
1785;SDS011;890;48.158;11.540;2024-02-23T06:01:28;1447.87;;;999.90;;
1785;SDS011;890;48.158;11.540;2024-02-23T06:03:54;1467.67;;;999.90;;
1785;SDS011;890;48.158;11.540;2024-02-23T06:06:20;1452.63;;;999.90;;
1785;SDS011;890;48.158;11.540;2024-02-23T06:08:45;1428.13;;;999.90;;
1785;SDS011;890;48.158;11.540;2024-02-23T06:11:11;1409.37;;;999.90;;
1785;SDS011;890;48.158;11.540;2024-02-23T06:13:37;1452.57;;;999.90;;
1785;SDS011;890;48.158;11.540;2024-02-23T06:16:04;1471.97;;;999.90;;
1785;SDS011;890;48.158;11.540;2024-02-23T06:18:30;1456.70;;;999.90;;
1785;SDS011;890;48.158;11.540;2024-02-23T06:20:55;1475.30;;;999.90;;
1785;SDS011;890;48.158;11.540;2024-02-23T06:23:21;1472.63;;;999.90;;
1785;SDS011;890;48.158;11.540;2024-02-23T06:25:47;1352.77;;;999.90;;
1785;SDS011;890;48.158;11.540;2024-02-23T06:28:13;1234.20;;;999.90;;
1785;SDS011;890;48.158;11.540;2024-02-23T06:30:38;1349.20;;;999.90;;
1785;SDS011;890;48.158;11.540;2024-02-23T06:33:05;1376.60;;;999.90;;
1785;SDS011;890;48.158;11.540;2024-02-23T06:35:31;1361.13;;;999.90;;
1785;SDS011;890;48.158;11.540;2024-02-23T06:37:57;1410.97;;;999.90;;
1785;SDS011;890;48.158;11.540;2024-02-23T06:40:23;1378.60;;;999.90;;
1785;SDS011;890;48.158;11.540;2024-02-23T06:42:48;1445.63;;;999.90;;
1785;SDS011;890;48.158;11.540;2024-02-23T06:45:15;1472.83;;;999.90;;
1785;SDS011;890;48.158;11.540;2024-02-23T06:47:41;1462.33;;;999.90;;
1785;SDS011;890;48.158;11.540;2024-02-23T06:50:07;1466.07;;;999.90;;
1785;SDS011;890;48.158;11.540;2024-02-23T06:52:33;1480.93;;;999.90;;
1785;SDS011;890;48.158;11.540;2024-02-23T06:54:59;1484.47;;;999.90;;
1785;SDS011;890;48.158;11.540;2024-02-23T06:57:25;1480.10;;;999.90;;
1785;SDS011;890;48.158;11.540;2024-02-23T06:59:51;1457.73;;;999.90;;
1785;SDS011;890;48.158;11.540;2024-02-23T07:02:17;1463.10;;;999.90;;
1785;SDS011;890;48.158;11.540;2024-02-23T07:04:42;978.27;;;893.83;;
1785;SDS011;890;48.158;11.540;2024-02-23T07:07:08;1048.60;;;958.70;;
1785;SDS011;890;48.158;11.540;2024-02-23T07:09:34;1071.63;;;974.97;;
1785;SDS011;890;48.158;11.540;2024-02-23T07:12:00;987.70;;;900.53;;
1785;SDS011;890;48.158;11.540;2024-02-23T07:14:26;1049.80;;;957.70;;
1785;SDS011;890;48.158;11.540;2024-02-23T07:16:51;1074.93;;;979.63;;
1785;SDS011;890;48.158;11.540;2024-02-23T07:19:17;1137.13;;;999.90;;
1785;SDS011;890;48.158;11.540;2024-02-23T07:21:45;1168.60;;;999.90;;
1785;SDS011;890;48.158;11.540;2024-02-23T07:24:10;1025.67;;;939.00;;
1785;SDS011;890;48.158;11.540;2024-02-23T07:26:36;1007.60;;;920.53;;
1785;SDS011;890;48.158;11.540;2024-02-23T07:29:02;1110.63;;;999.90;;
1785;SDS011;890;48.158;11.540;2024-02-23T07:31:28;1073.87;;;979.13;;
1785;SDS011;890;48.158;11.540;2024-02-23T07:33:54;1165.10;;;999.90;;
1785;SDS011;890;48.158;11.540;2024-02-23T07:36:19;1161.10;;;999.90;;
1785;SDS011;890;48.158;11.540;2024-02-23T07:38:45;1204.80;;;999.90;;
1785;SDS011;890;48.158;11.540;2024-02-23T07:41:12;1299.43;;;999.90;;
1785;SDS011;890;48.158;11.540;2024-02-23T07:43:42;1276.27;;;999.90;;
1785;SDS011;890;48.158;11.540;2024-02-23T07:46:08;1348.63;;;999.90;;
1785;SDS011;890;48.158;11.540;2024-02-23T07:48:34;1359.03;;;999.90;;
1785;SDS011;890;48.158;11.540;2024-02-23T07:51:02;1372.33;;;999.90;;
1785;SDS011;890;48.158;11.540;2024-02-23T07:53:29;1162.00;;;999.90;;
1785;SDS011;890;48.158;11.540;2024-02-23T07:55:56;414.57;;;380.97;;
1785;SDS011;890;48.158;11.540;2024-02-23T07:58:24;379.40;;;349.37;;
1785;SDS011;890;48.158;11.540;2024-02-23T08:00:51;973.93;;;882.40;;
1785;SDS011;890;48.158;11.540;2024-02-23T08:03:18;1399.87;;;999.90;;
1785;SDS011;890;48.158;11.540;2024-02-23T08:05:43;1093.87;;;994.10;;
1785;SDS011;890;48.158;11.540;2024-02-23T08:08:09;1441.90;;;999.90;;
1785;SDS011;890;48.158;11.540;2024-02-23T08:10:35;1305.93;;;999.90;;
1785;SDS011;890;48.158;11.540;2024-02-23T08:13:00;906.10;;;832.10;;
1785;SDS011;890;48.158;11.540;2024-02-23T08:15:26;872.87;;;802.30;;
1785;SDS011;890;48.158;11.540;2024-02-23T08:17:52;635.00;;;586.07;;
1785;SDS011;890;48.158;11.540;2024-02-23T08:20:17;1331.10;;;999.90;;
1785;SDS011;890;48.158;11.540;2024-02-23T08:22:43;1383.97;;;999.90;;
1785;SDS011;890;48.158;11.540;2024-02-23T08:25:09;1341.70;;;999.90;;
1785;SDS011;890;48.158;11.540;2024-02-23T08:27:34;1246.87;;;999.90;;
1785;SDS011;890;48.158;11.540;2024-02-23T08:30:00;1102.00;;;999.90;;
1785;SDS011;890;48.158;11.540;2024-02-23T08:32:26;1237.43;;;999.90;;
1785;SDS011;890;48.158;11.540;2024-02-23T08:34:51;1258.97;;;999.90;;
1785;SDS011;890;48.158;11.540;2024-02-23T08:37:24;1286.97;;;999.90;;
1785;SDS011;890;48.158;11.540;2024-02-23T08:39:51;1233.10;;;999.90;;
1785;SDS011;890;48.158;11.540;2024-02-23T08:42:16;1050.80;;;975.33;;
1785;SDS011;890;48.158;11.540;2024-02-23T08:44:42;1198.93;;;999.90;;
1785;SDS011;890;48.158;11.540;2024-02-23T08:47:08;1150.77;;;999.90;;
1785;SDS011;890;48.158;11.540;2024-02-23T08:49:33;1184.30;;;999.90;;
1785;SDS011;890;48.158;11.540;2024-02-23T08:51:59;1115.13;;;999.90;;
1785;SDS011;890;48.158;11.540;2024-02-23T08:54:24;1167.87;;;999.90;;
1785;SDS011;890;48.158;11.540;2024-02-23T08:56:50;1105.37;;;999.90;;
1785;SDS011;890;48.158;11.540;2024-02-23T08:59:16;1095.60;;;999.90;;
1785;SDS011;890;48.158;11.540;2024-02-23T09:01:41;1083.70;;;999.47;;
1785;SDS011;890;48.158;11.540;2024-02-23T09:04:09;1112.80;;;999.90;;
1785;SDS011;890;48.158;11.540;2024-02-23T09:06:35;1091.67;;;999.90;;
1785;SDS011;890;48.158;11.540;2024-02-23T09:09:00;1100.17;;;999.90;;
1785;SDS011;890;48.158;11.540;2024-02-23T09:11:26;1081.13;;;999.40;;
1785;SDS011;890;48.158;11.540;2024-02-23T09:13:52;1052.27;;;983.10;;
1785;SDS011;890;48.158;11.540;2024-02-23T09:16:17;1106.20;;;999.90;;
1785;SDS011;890;48.158;11.540;2024-02-23T09:18:44;1202.67;;;999.90;;
1785;SDS011;890;48.158;11.540;2024-02-23T09:21:09;1120.97;;;999.90;;
1785;SDS011;890;48.158;11.540;2024-02-23T09:23:35;1258.87;;;999.90;;
1785;SDS011;890;48.158;11.540;2024-02-23T09:26:00;1191.90;;;999.90;;
1785;SDS011;890;48.158;11.540;2024-02-23T09:28:26;1236.03;;;999.90;;
1785;SDS011;890;48.158;11.540;2024-02-23T09:30:52;1343.40;;;999.90;;
1785;SDS011;890;48.158;11.540;2024-02-23T09:33:17;1310.47;;;999.90;;
1785;SDS011;890;48.158;11.540;2024-02-23T09:35:43;1241.00;;;999.90;;
1785;SDS011;890;48.158;11.540;2024-02-23T09:38:08;1346.37;;;999.90;;
1785;SDS011;890;48.158;11.540;2024-02-23T09:40:34;1363.30;;;999.90;;
1785;SDS011;890;48.158;11.540;2024-02-23T09:43:00;1312.77;;;999.90;;
1785;SDS011;890;48.158;11.540;2024-02-23T09:45:26;1353.97;;;999.90;;
1785;SDS011;890;48.158;11.540;2024-02-23T09:47:55;1340.37;;;999.90;;
1785;SDS011;890;48.158;11.540;2024-02-23T09:50:23;1383.47;;;999.90;;
1785;SDS011;890;48.158;11.540;2024-02-23T09:52:49;1385.90;;;999.90;;
1785;SDS011;890;48.158;11.540;2024-02-23T09:55:16;1390.73;;;999.90;;
1785;SDS011;890;48.158;11.540;2024-02-23T09:57:43;1364.77;;;999.90;;
1785;SDS011;890;48.158;11.540;2024-02-23T10:00:11;1380.97;;;999.90;;
1785;SDS011;890;48.158;11.540;2024-02-23T10:02:37;1355.83;;;999.90;;
1785;SDS011;890;48.158;11.540;2024-02-23T10:05:04;1322.73;;;999.90;;
1785;SDS011;890;48.158;11.540;2024-02-23T10:07:31;1357.57;;;999.90;;
1785;SDS011;890;48.158;11.540;2024-02-23T10:09:58;1412.47;;;999.90;;
1785;SDS011;890;48.158;11.540;2024-02-23T10:12:24;1349.60;;;999.90;;
1785;SDS011;890;48.158;11.540;2024-02-23T10:14:49;1308.20;;;999.90;;
1785;SDS011;890;48.158;11.540;2024-02-23T10:17:15;1374.10;;;999.90;;
1785;SDS011;890;48.158;11.540;2024-02-23T10:19:41;1387.23;;;999.90;;
1785;SDS011;890;48.158;11.540;2024-02-23T10:22:06;1335.57;;;999.90;;
1785;SDS011;890;48.158;11.540;2024-02-23T10:24:32;1321.13;;;999.90;;
1785;SDS011;890;48.158;11.540;2024-02-23T10:26:57;1262.53;;;999.90;;
1785;SDS011;890;48.158;11.540;2024-02-23T10:29:25;1261.23;;;999.90;;
1785;SDS011;890;48.158;11.540;2024-02-23T10:31:51;1180.73;;;999.90;;
1785;SDS011;890;48.158;11.540;2024-02-23T10:34:18;1162.00;;;999.90;;
1785;SDS011;890;48.158;11.540;2024-02-23T10:36:44;1133.90;;;999.90;;
1785;SDS011;890;48.158;11.540;2024-02-23T10:39:15;1052.17;;;983.03;;
1785;SDS011;890;48.158;11.540;2024-02-23T10:41:46;1101.43;;;999.90;;
1785;SDS011;890;48.158;11.540;2024-02-23T10:44:16;1111.77;;;999.90;;
1785;SDS011;890;48.158;11.540;2024-02-23T10:46:43;1097.80;;;999.90;;
1785;SDS011;890;48.158;11.540;2024-02-23T10:49:10;1089.00;;;999.90;;
1785;SDS011;890;48.158;11.540;2024-02-23T10:51:37;1056.00;;;986.77;;
1785;SDS011;890;48.158;11.540;2024-02-23T10:54:04;1059.40;;;987.93;;
1785;SDS011;890;48.158;11.540;2024-02-23T10:56:31;1053.80;;;984.77;;
1785;SDS011;890;48.158;11.540;2024-02-23T10:58:57;905.73;;;843.73;;
1785;SDS011;890;48.158;11.540;2024-02-23T11:01:23;956.07;;;892.17;;
1785;SDS011;890;48.158;11.540;2024-02-23T11:03:50;951.27;;;886.07;;
1785;SDS011;890;48.158;11.540;2024-02-23T11:06:18;933.83;;;868.80;;
1785;SDS011;890;48.158;11.540;2024-02-23T11:08:46;1067.20;;;993.73;;
1785;SDS011;890;48.158;11.540;2024-02-23T11:11:16;1176.43;;;999.90;;
1785;SDS011;890;48.158;11.540;2024-02-23T11:13:45;1123.93;;;999.90;;
1785;SDS011;890;48.158;11.540;2024-02-23T11:16:12;1202.97;;;999.90;;
1785;SDS011;890;48.158;11.540;2024-02-23T11:18:48;1095.07;;;999.90;;
1785;SDS011;890;48.158;11.540;2024-02-23T11:21:13;1166.43;;;999.90;;
1785;SDS011;890;48.158;11.540;2024-02-23T11:23:43;1194.97;;;999.90;;
1785;SDS011;890;48.158;11.540;2024-02-23T11:26:11;1106.03;;;999.90;;
1785;SDS011;890;48.158;11.540;2024-02-23T11:28:43;1175.07;;;999.90;;
1785;SDS011;890;48.158;11.540;2024-02-23T11:31:19;1205.37;;;999.90;;
1785;SDS011;890;48.158;11.540;2024-02-23T11:33:50;1258.57;;;999.90;;
1785;SDS011;890;48.158;11.540;2024-02-23T11:36:24;1269.47;;;999.90;;
1785;SDS011;890;48.158;11.540;2024-02-23T11:38:53;1198.43;;;999.90;;
1785;SDS011;890;48.158;11.540;2024-02-23T11:41:22;1233.03;;;999.90;;
1785;SDS011;890;48.158;11.540;2024-02-23T11:43:49;1260.17;;;999.90;;
1785;SDS011;890;48.158;11.540;2024-02-23T11:46:16;1149.30;;;999.90;;
1785;SDS011;890;48.158;11.540;2024-02-23T11:48:42;1124.97;;;999.90;;
1785;SDS011;890;48.158;11.540;2024-02-23T11:51:09;1156.47;;;999.90;;
1785;SDS011;890;48.158;11.540;2024-02-23T11:53:41;1231.27;;;999.90;;
1785;SDS011;890;48.158;11.540;2024-02-23T11:56:08;1175.40;;;999.90;;
1785;SDS011;890;48.158;11.540;2024-02-23T11:58:35;1257.97;;;999.90;;
1785;SDS011;890;48.158;11.540;2024-02-23T12:01:01;1325.57;;;999.90;;
1785;SDS011;890;48.158;11.540;2024-02-23T12:03:30;1386.67;;;999.90;;
1785;SDS011;890;48.158;11.540;2024-02-23T12:05:57;1376.73;;;999.90;;
1785;SDS011;890;48.158;11.540;2024-02-23T12:08:24;1279.93;;;999.90;;
1785;SDS011;890;48.158;11.540;2024-02-23T12:10:54;1318.13;;;999.90;;
1785;SDS011;890;48.158;11.540;2024-02-23T12:13:20;1360.07;;;999.90;;
1785;SDS011;890;48.158;11.540;2024-02-23T12:15:52;1381.90;;;999.90;;
1785;SDS011;890;48.158;11.540;2024-02-23T12:18:21;1363.63;;;999.90;;
1785;SDS011;890;48.158;11.540;2024-02-23T12:20:51;1380.33;;;999.90;;
1785;SDS011;890;48.158;11.540;2024-02-23T12:23:17;1442.70;;;999.90;;
1785;SDS011;890;48.158;11.540;2024-02-23T12:28:39;1437.07;;;999.90;;
1785;SDS011;890;48.158;11.540;2024-02-23T12:31:05;1458.23;;;999.90;;
1785;SDS011;890;48.158;11.540;2024-02-23T12:33:32;1475.67;;;999.90;;
1785;SDS011;890;48.158;11.540;2024-02-23T12:36:00;1498.80;;;999.90;;
1785;SDS011;890;48.158;11.540;2024-02-23T12:38:26;1482.57;;;999.90;;
1785;SDS011;890;48.158;11.540;2024-02-23T12:40:51;1481.77;;;999.90;;
1785;SDS011;890;48.158;11.540;2024-02-23T12:43:18;839.87;;;771.80;;
1785;SDS011;890;48.158;11.540;2024-02-23T12:45:46;1458.03;;;999.90;;
1785;SDS011;890;48.158;11.540;2024-02-23T12:48:16;1491.83;;;999.90;;
1785;SDS011;890;48.158;11.540;2024-02-23T12:50:42;1473.20;;;999.90;;
1785;SDS011;890;48.158;11.540;2024-02-23T12:53:10;1495.27;;;999.90;;
1785;SDS011;890;48.158;11.540;2024-02-23T12:55:55;1476.90;;;999.90;;
1785;SDS011;890;48.158;11.540;2024-02-23T12:58:21;1465.07;;;999.90;;
1785;SDS011;890;48.158;11.540;2024-02-23T13:00:46;1484.57;;;999.90;;
1785;SDS011;890;48.158;11.540;2024-02-23T13:03:12;1454.97;;;999.90;;
1785;SDS011;890;48.158;11.540;2024-02-23T13:05:38;1467.57;;;999.90;;
1785;SDS011;890;48.158;11.540;2024-02-23T13:08:03;1483.73;;;999.90;;
1785;SDS011;890;48.158;11.540;2024-02-23T13:10:29;1473.03;;;999.90;;
1785;SDS011;890;48.158;11.540;2024-02-23T13:12:55;1454.23;;;999.90;;
1785;SDS011;890;48.158;11.540;2024-02-23T13:15:21;1432.40;;;999.90;;
1785;SDS011;890;48.158;11.540;2024-02-23T13:17:46;1442.60;;;999.90;;
1785;SDS011;890;48.158;11.540;2024-02-23T13:20:12;1471.93;;;999.90;;
1785;SDS011;890;48.158;11.540;2024-02-23T13:22:38;1452.90;;;999.90;;
1785;SDS011;890;48.158;11.540;2024-02-23T13:25:04;1450.33;;;999.90;;
1785;SDS011;890;48.158;11.540;2024-02-23T13:27:29;1474.13;;;999.90;;
1785;SDS011;890;48.158;11.540;2024-02-23T13:29:55;1478.03;;;999.90;;
1785;SDS011;890;48.158;11.540;2024-02-23T13:32:21;1488.07;;;999.90;;
1785;SDS011;890;48.158;11.540;2024-02-23T13:34:47;1477.23;;;999.90;;
1785;SDS011;890;48.158;11.540;2024-02-23T13:37:17;1489.70;;;999.90;;
1785;SDS011;890;48.158;11.540;2024-02-23T13:39:43;1486.20;;;999.90;;
1785;SDS011;890;48.158;11.540;2024-02-23T13:42:08;1505.20;;;999.90;;
1785;SDS011;890;48.158;11.540;2024-02-23T13:44:35;1461.40;;;999.90;;
1785;SDS011;890;48.158;11.540;2024-02-23T13:47:01;1481.73;;;999.90;;
1785;SDS011;890;48.158;11.540;2024-02-23T13:49:27;1491.37;;;999.90;;
1785;SDS011;890;48.158;11.540;2024-02-23T13:51:53;1500.67;;;999.90;;
1785;SDS011;890;48.158;11.540;2024-02-23T13:54:20;986.70;;;897.83;;
1785;SDS011;890;48.158;11.540;2024-02-23T13:56:45;810.30;;;741.60;;
1785;SDS011;890;48.158;11.540;2024-02-23T13:59:12;848.40;;;775.47;;
1785;SDS011;890;48.158;11.540;2024-02-23T14:01:38;904.70;;;826.97;;
1785;SDS011;890;48.158;11.540;2024-02-23T14:04:06;782.07;;;716.07;;
1785;SDS011;890;48.158;11.540;2024-02-23T14:06:33;656.87;;;599.33;;
1785;SDS011;890;48.158;11.540;2024-02-23T14:08:58;464.87;;;424.53;;
1785;SDS011;890;48.158;11.540;2024-02-23T14:11:24;540.13;;;499.03;;